sensor_id;sensor_type;location;lat;lon;timestamp;P1;durP1;ratioP1;P2;durP2;ratioP2
14516;SDS011;7344;50.864;4.362;2023-12-14T00:01:31;46.07;;;26.27;;
14516;SDS011;7344;50.864;4.362;2023-12-14T00:03:57;49.10;;;26.73;;
14516;SDS011;7344;50.864;4.362;2023-12-14T00:06:22;49.97;;;26.37;;
14516;SDS011;7344;50.864;4.362;2023-12-14T00:08:48;46.77;;;25.53;;
14516;SDS011;7344;50.864;4.362;2023-12-14T00:11:13;47.90;;;26.40;;
14516;SDS011;7344;50.864;4.362;2023-12-14T00:13:39;45.23;;;25.20;;
14516;SDS011;7344;50.864;4.362;2023-12-14T00:16:05;43.77;;;25.13;;
14516;SDS011;7344;50.864;4.362;2023-12-14T00:18:31;47.13;;;25.27;;
14516;SDS011;7344;50.864;4.362;2023-12-14T00:20:57;46.17;;;24.00;;
14516;SDS011;7344;50.864;4.362;2023-12-14T00:23:22;44.37;;;23.63;;
14516;SDS011;7344;50.864;4.362;2023-12-14T00:25:48;43.63;;;24.73;;
14516;SDS011;7344;50.864;4.362;2023-12-14T00:28:14;45.60;;;25.27;;
14516;SDS011;7344;50.864;4.362;2023-12-14T00:30:39;47.97;;;25.83;;
14516;SDS011;7344;50.864;4.362;2023-12-14T00:33:05;45.47;;;25.50;;
14516;SDS011;7344;50.864;4.362;2023-12-14T00:35:31;45.80;;;24.90;;
14516;SDS011;7344;50.864;4.362;2023-12-14T00:37:56;44.90;;;24.37;;
14516;SDS011;7344;50.864;4.362;2023-12-14T00:40:22;45.90;;;24.80;;
14516;SDS011;7344;50.864;4.362;2023-12-14T00:42:47;38.30;;;22.27;;
14516;SDS011;7344;50.864;4.362;2023-12-14T00:45:13;41.97;;;24.03;;
14516;SDS011;7344;50.864;4.362;2023-12-14T00:47:39;44.93;;;25.03;;
14516;SDS011;7344;50.864;4.362;2023-12-14T00:50:04;43.67;;;24.80;;
14516;SDS011;7344;50.864;4.362;2023-12-14T00:52:30;45.43;;;25.43;;
14516;SDS011;7344;50.864;4.362;2023-12-14T00:54:56;46.00;;;25.23;;
14516;SDS011;7344;50.864;4.362;2023-12-14T00:57:21;47.30;;;25.83;;
14516;SDS011;7344;50.864;4.362;2023-12-14T00:59:47;42.80;;;24.30;;
14516;SDS011;7344;50.864;4.362;2023-12-14T01:02:12;45.33;;;25.73;;
14516;SDS011;7344;50.864;4.362;2023-12-14T01:04:38;47.27;;;24.97;;
14516;SDS011;7344;50.864;4.362;2023-12-14T01:07:04;44.90;;;25.83;;
14516;SDS011;7344;50.864;4.362;2023-12-14T01:09:29;49.67;;;25.50;;
14516;SDS011;7344;50.864;4.362;2023-12-14T01:11:55;46.13;;;25.03;;
14516;SDS011;7344;50.864;4.362;2023-12-14T01:14:21;49.40;;;27.37;;
14516;SDS011;7344;50.864;4.362;2023-12-14T01:16:46;50.50;;;27.60;;
14516;SDS011;7344;50.864;4.362;2023-12-14T01:19:12;56.33;;;31.17;;
14516;SDS011;7344;50.864;4.362;2023-12-14T01:21:37;54.67;;;29.53;;
14516;SDS011;7344;50.864;4.362;2023-12-14T01:24:03;57.23;;;29.90;;
14516;SDS011;7344;50.864;4.362;2023-12-14T01:26:29;60.83;;;30.97;;
14516;SDS011;7344;50.864;4.362;2023-12-14T01:28:54;53.40;;;29.13;;
14516;SDS011;7344;50.864;4.362;2023-12-14T01:31:20;61.17;;;31.17;;
14516;SDS011;7344;50.864;4.362;2023-12-14T01:33:48;59.63;;;30.17;;
14516;SDS011;7344;50.864;4.362;2023-12-14T01:36:23;64.47;;;32.37;;
14516;SDS011;7344;50.864;4.362;2023-12-14T01:38:49;62.40;;;31.00;;
14516;SDS011;7344;50.864;4.362;2023-12-14T01:41:15;59.53;;;31.23;;
14516;SDS011;7344;50.864;4.362;2023-12-14T01:43:41;61.67;;;32.23;;
14516;SDS011;7344;50.864;4.362;2023-12-14T01:46:07;59.50;;;30.57;;
14516;SDS011;7344;50.864;4.362;2023-12-14T01:48:32;60.43;;;31.27;;
14516;SDS011;7344;50.864;4.362;2023-12-14T01:50:58;62.33;;;30.87;;
14516;SDS011;7344;50.864;4.362;2023-12-14T01:53:23;56.73;;;29.97;;
14516;SDS011;7344;50.864;4.362;2023-12-14T01:55:50;57.90;;;30.40;;
14516;SDS011;7344;50.864;4.362;2023-12-14T01:58:16;57.87;;;29.37;;
14516;SDS011;7344;50.864;4.362;2023-12-14T02:01:00;53.17;;;29.07;;
14516;SDS011;7344;50.864;4.362;2023-12-14T02:03:32;59.07;;;29.47;;
14516;SDS011;7344;50.864;4.362;2023-12-14T02:05:58;46.50;;;25.77;;
14516;SDS011;7344;50.864;4.362;2023-12-14T02:08:24;45.87;;;24.00;;
14516;SDS011;7344;50.864;4.362;2023-12-14T02:10:49;43.37;;;24.00;;
14516;SDS011;7344;50.864;4.362;2023-12-14T02:13:15;41.33;;;23.33;;
14516;SDS011;7344;50.864;4.362;2023-12-14T02:15:41;39.37;;;22.87;;
14516;SDS011;7344;50.864;4.362;2023-12-14T02:18:07;40.00;;;23.43;;
14516;SDS011;7344;50.864;4.362;2023-12-14T02:20:32;42.43;;;24.13;;
14516;SDS011;7344;50.864;4.362;2023-12-14T02:22:58;43.57;;;24.00;;
14516;SDS011;7344;50.864;4.362;2023-12-14T02:25:24;45.00;;;24.47;;
14516;SDS011;7344;50.864;4.362;2023-12-14T02:27:50;39.40;;;23.20;;
14516;SDS011;7344;50.864;4.362;2023-12-14T02:30:17;47.63;;;25.70;;
14516;SDS011;7344;50.864;4.362;2023-12-14T02:32:43;48.93;;;28.17;;
14516;SDS011;7344;50.864;4.362;2023-12-14T02:35:08;50.73;;;26.90;;
14516;SDS011;7344;50.864;4.362;2023-12-14T02:37:34;51.40;;;28.47;;
14516;SDS011;7344;50.864;4.362;2023-12-14T02:40:05;48.70;;;27.87;;
14516;SDS011;7344;50.864;4.362;2023-12-14T02:42:31;51.57;;;28.10;;
14516;SDS011;7344;50.864;4.362;2023-12-14T02:44:57;48.37;;;26.80;;
14516;SDS011;7344;50.864;4.362;2023-12-14T02:47:23;50.83;;;27.80;;
14516;SDS011;7344;50.864;4.362;2023-12-14T02:49:48;50.33;;;26.87;;
14516;SDS011;7344;50.864;4.362;2023-12-14T02:52:14;48.57;;;27.60;;
14516;SDS011;7344;50.864;4.362;2023-12-14T02:54:40;48.53;;;27.13;;
14516;SDS011;7344;50.864;4.362;2023-12-14T02:57:06;49.07;;;28.00;;
14516;SDS011;7344;50.864;4.362;2023-12-14T02:59:31;47.57;;;27.13;;
14516;SDS011;7344;50.864;4.362;2023-12-14T03:01:57;55.90;;;29.13;;
14516;SDS011;7344;50.864;4.362;2023-12-14T03:04:23;55.57;;;29.80;;
14516;SDS011;7344;50.864;4.362;2023-12-14T03:06:48;56.27;;;30.43;;
14516;SDS011;7344;50.864;4.362;2023-12-14T03:09:14;58.23;;;30.60;;
14516;SDS011;7344;50.864;4.362;2023-12-14T03:11:40;62.90;;;38.13;;
14516;SDS011;7344;50.864;4.362;2023-12-14T03:14:05;56.63;;;30.17;;
14516;SDS011;7344;50.864;4.362;2023-12-14T03:16:31;55.77;;;30.33;;
14516;SDS011;7344;50.864;4.362;2023-12-14T03:18:56;59.63;;;31.63;;
14516;SDS011;7344;50.864;4.362;2023-12-14T03:21:22;57.30;;;29.90;;
14516;SDS011;7344;50.864;4.362;2023-12-14T03:23:48;49.10;;;27.90;;
14516;SDS011;7344;50.864;4.362;2023-12-14T03:26:14;53.97;;;28.93;;
14516;SDS011;7344;50.864;4.362;2023-12-14T03:28:40;54.57;;;30.13;;
14516;SDS011;7344;50.864;4.362;2023-12-14T03:31:06;52.17;;;29.00;;
14516;SDS011;7344;50.864;4.362;2023-12-14T03:33:31;47.43;;;28.57;;
14516;SDS011;7344;50.864;4.362;2023-12-14T03:35:57;44.33;;;26.93;;
14516;SDS011;7344;50.864;4.362;2023-12-14T03:38:23;38.80;;;23.87;;
14516;SDS011;7344;50.864;4.362;2023-12-14T03:40:48;39.17;;;23.20;;
14516;SDS011;7344;50.864;4.362;2023-12-14T03:43:14;34.83;;;22.03;;
14516;SDS011;7344;50.864;4.362;2023-12-14T03:45:39;34.10;;;20.23;;
14516;SDS011;7344;50.864;4.362;2023-12-14T03:48:05;32.57;;;20.30;;
14516;SDS011;7344;50.864;4.362;2023-12-14T03:50:30;29.63;;;18.53;;
14516;SDS011;7344;50.864;4.362;2023-12-14T03:52:57;31.57;;;18.80;;
14516;SDS011;7344;50.864;4.362;2023-12-14T03:55:23;30.10;;;17.77;;
14516;SDS011;7344;50.864;4.362;2023-12-14T03:57:49;29.50;;;18.10;;
14516;SDS011;7344;50.864;4.362;2023-12-14T04:00:14;30.67;;;18.53;;
14516;SDS011;7344;50.864;4.362;2023-12-14T04:02:40;26.30;;;17.13;;
14516;SDS011;7344;50.864;4.362;2023-12-14T04:05:07;30.53;;;18.90;;
14516;SDS011;7344;50.864;4.362;2023-12-14T04:07:39;29.70;;;18.80;;
14516;SDS011;7344;50.864;4.362;2023-12-14T04:10:08;29.50;;;18.30;;
14516;SDS011;7344;50.864;4.362;2023-12-14T04:12:38;29.87;;;18.47;;
14516;SDS011;7344;50.864;4.362;2023-12-14T04:15:05;28.27;;;18.03;;
14516;SDS011;7344;50.864;4.362;2023-12-14T04:17:32;27.87;;;18.27;;
14516;SDS011;7344;50.864;4.362;2023-12-14T04:19:58;27.23;;;17.97;;
14516;SDS011;7344;50.864;4.362;2023-12-14T04:22:24;27.07;;;17.40;;
14516;SDS011;7344;50.864;4.362;2023-12-14T04:24:50;29.20;;;18.63;;
14516;SDS011;7344;50.864;4.362;2023-12-14T04:27:16;29.03;;;19.27;;
14516;SDS011;7344;50.864;4.362;2023-12-14T04:29:42;26.00;;;17.63;;
14516;SDS011;7344;50.864;4.362;2023-12-14T04:32:07;26.83;;;19.27;;
14516;SDS011;7344;50.864;4.362;2023-12-14T04:34:33;27.10;;;18.83;;
14516;SDS011;7344;50.864;4.362;2023-12-14T04:36:58;29.17;;;19.43;;
14516;SDS011;7344;50.864;4.362;2023-12-14T04:39:24;26.23;;;19.57;;
14516;SDS011;7344;50.864;4.362;2023-12-14T04:41:50;30.67;;;19.03;;
14516;SDS011;7344;50.864;4.362;2023-12-14T04:44:17;28.50;;;19.53;;
14516;SDS011;7344;50.864;4.362;2023-12-14T04:46:43;28.93;;;20.93;;
14516;SDS011;7344;50.864;4.362;2023-12-14T04:49:09;27.43;;;19.87;;
14516;SDS011;7344;50.864;4.362;2023-12-14T04:51:34;30.57;;;20.83;;
14516;SDS011;7344;50.864;4.362;2023-12-14T04:54:00;30.37;;;21.37;;
14516;SDS011;7344;50.864;4.362;2023-12-14T04:56:25;30.00;;;20.47;;
14516;SDS011;7344;50.864;4.362;2023-12-14T04:58:51;31.20;;;21.20;;
14516;SDS011;7344;50.864;4.362;2023-12-14T05:01:16;28.80;;;20.37;;
14516;SDS011;7344;50.864;4.362;2023-12-14T05:03:42;29.57;;;20.93;;
14516;SDS011;7344;50.864;4.362;2023-12-14T05:06:08;28.90;;;19.70;;
14516;SDS011;7344;50.864;4.362;2023-12-14T05:08:34;28.43;;;20.60;;
14516;SDS011;7344;50.864;4.362;2023-12-14T05:11:00;27.90;;;19.73;;
14516;SDS011;7344;50.864;4.362;2023-12-14T05:13:26;26.67;;;19.70;;
14516;SDS011;7344;50.864;4.362;2023-12-14T05:15:51;27.13;;;19.97;;
14516;SDS011;7344;50.864;4.362;2023-12-14T05:18:17;25.53;;;19.43;;
14516;SDS011;7344;50.864;4.362;2023-12-14T05:20:43;28.57;;;19.77;;
14516;SDS011;7344;50.864;4.362;2023-12-14T05:23:10;27.13;;;19.73;;
14516;SDS011;7344;50.864;4.362;2023-12-14T05:25:36;27.00;;;20.10;;
14516;SDS011;7344;50.864;4.362;2023-12-14T05:28:02;25.77;;;18.87;;
14516;SDS011;7344;50.864;4.362;2023-12-14T05:30:27;26.03;;;19.20;;
14516;SDS011;7344;50.864;4.362;2023-12-14T05:32:53;26.23;;;19.37;;
14516;SDS011;7344;50.864;4.362;2023-12-14T05:35:19;24.00;;;18.77;;
14516;SDS011;7344;50.864;4.362;2023-12-14T05:37:44;23.50;;;18.90;;
14516;SDS011;7344;50.864;4.362;2023-12-14T05:40:10;25.00;;;18.57;;
14516;SDS011;7344;50.864;4.362;2023-12-14T05:42:36;26.10;;;19.17;;
14516;SDS011;7344;50.864;4.362;2023-12-14T05:45:02;26.60;;;19.33;;
14516;SDS011;7344;50.864;4.362;2023-12-14T05:47:29;27.90;;;19.13;;
14516;SDS011;7344;50.864;4.362;2023-12-14T05:49:55;27.03;;;19.17;;
14516;SDS011;7344;50.864;4.362;2023-12-14T05:52:21;27.00;;;20.20;;
14516;SDS011;7344;50.864;4.362;2023-12-14T05:54:46;28.20;;;20.63;;
14516;SDS011;7344;50.864;4.362;2023-12-14T05:57:12;24.70;;;18.87;;
14516;SDS011;7344;50.864;4.362;2023-12-14T05:59:38;28.87;;;19.13;;
14516;SDS011;7344;50.864;4.362;2023-12-14T06:02:04;26.07;;;18.80;;
14516;SDS011;7344;50.864;4.362;2023-12-14T06:04:31;25.03;;;19.03;;
14516;SDS011;7344;50.864;4.362;2023-12-14T06:06:57;25.10;;;18.50;;
14516;SDS011;7344;50.864;4.362;2023-12-14T06:09:23;23.40;;;18.07;;
14516;SDS011;7344;50.864;4.362;2023-12-14T06:11:56;23.03;;;17.50;;
14516;SDS011;7344;50.864;4.362;2023-12-14T06:14:22;25.00;;;18.67;;
14516;SDS011;7344;50.864;4.362;2023-12-14T06:16:47;27.37;;;19.03;;
14516;SDS011;7344;50.864;4.362;2023-12-14T06:19:13;26.83;;;18.80;;
14516;SDS011;7344;50.864;4.362;2023-12-14T06:21:38;22.63;;;17.70;;
14516;SDS011;7344;50.864;4.362;2023-12-14T06:24:04;25.80;;;18.73;;
14516;SDS011;7344;50.864;4.362;2023-12-14T06:26:30;26.60;;;19.00;;
14516;SDS011;7344;50.864;4.362;2023-12-14T06:28:56;25.93;;;19.13;;
14516;SDS011;7344;50.864;4.362;2023-12-14T06:31:21;23.77;;;18.53;;
14516;SDS011;7344;50.864;4.362;2023-12-14T06:33:47;23.87;;;17.63;;
14516;SDS011;7344;50.864;4.362;2023-12-14T06:36:14;26.27;;;18.27;;
14516;SDS011;7344;50.864;4.362;2023-12-14T06:38:43;26.20;;;17.30;;
14516;SDS011;7344;50.864;4.362;2023-12-14T06:41:17;23.47;;;18.03;;
14516;SDS011;7344;50.864;4.362;2023-12-14T06:43:43;25.70;;;18.43;;
14516;SDS011;7344;50.864;4.362;2023-12-14T06:46:09;26.57;;;18.47;;
14516;SDS011;7344;50.864;4.362;2023-12-14T06:48:34;25.23;;;18.17;;
14516;SDS011;7344;50.864;4.362;2023-12-14T06:51:00;23.97;;;17.77;;
14516;SDS011;7344;50.864;4.362;2023-12-14T06:53:26;25.40;;;17.83;;
14516;SDS011;7344;50.864;4.362;2023-12-14T06:55:51;24.30;;;17.00;;
14516;SDS011;7344;50.864;4.362;2023-12-14T06:58:17;24.00;;;16.50;;
14516;SDS011;7344;50.864;4.362;2023-12-14T07:00:42;25.30;;;16.93;;
14516;SDS011;7344;50.864;4.362;2023-12-14T07:03:08;26.60;;;16.77;;
14516;SDS011;7344;50.864;4.362;2023-12-14T07:05:33;21.27;;;15.90;;
14516;SDS011;7344;50.864;4.362;2023-12-14T07:07:59;20.57;;;15.27;;
14516;SDS011;7344;50.864;4.362;2023-12-14T07:10:25;23.83;;;15.63;;
14516;SDS011;7344;50.864;4.362;2023-12-14T07:12:51;17.93;;;12.97;;
14516;SDS011;7344;50.864;4.362;2023-12-14T07:15:17;19.80;;;13.97;;
14516;SDS011;7344;50.864;4.362;2023-12-14T07:17:43;19.57;;;13.37;;
14516;SDS011;7344;50.864;4.362;2023-12-14T07:20:09;19.30;;;13.80;;
14516;SDS011;7344;50.864;4.362;2023-12-14T07:22:35;20.07;;;13.73;;
14516;SDS011;7344;50.864;4.362;2023-12-14T07:25:00;24.17;;;14.33;;
14516;SDS011;7344;50.864;4.362;2023-12-14T07:27:26;18.47;;;13.60;;
14516;SDS011;7344;50.864;4.362;2023-12-14T07:29:53;21.17;;;13.97;;
14516;SDS011;7344;50.864;4.362;2023-12-14T07:32:19;20.87;;;13.93;;
14516;SDS011;7344;50.864;4.362;2023-12-14T07:34:44;25.63;;;14.93;;
14516;SDS011;7344;50.864;4.362;2023-12-14T07:37:10;22.70;;;14.80;;
14516;SDS011;7344;50.864;4.362;2023-12-14T07:39:36;21.47;;;14.70;;
14516;SDS011;7344;50.864;4.362;2023-12-14T07:42:02;19.47;;;14.23;;
14516;SDS011;7344;50.864;4.362;2023-12-14T07:44:28;24.23;;;14.80;;
14516;SDS011;7344;50.864;4.362;2023-12-14T07:46:55;20.60;;;14.50;;
14516;SDS011;7344;50.864;4.362;2023-12-14T07:49:29;22.70;;;14.23;;
14516;SDS011;7344;50.864;4.362;2023-12-14T07:51:55;21.03;;;13.57;;
14516;SDS011;7344;50.864;4.362;2023-12-14T07:54:21;18.00;;;13.43;;
14516;SDS011;7344;50.864;4.362;2023-12-14T07:56:47;18.83;;;12.80;;
14516;SDS011;7344;50.864;4.362;2023-12-14T07:59:12;19.03;;;13.07;;
14516;SDS011;7344;50.864;4.362;2023-12-14T08:01:38;20.27;;;13.07;;
14516;SDS011;7344;50.864;4.362;2023-12-14T08:04:04;20.03;;;12.80;;
14516;SDS011;7344;50.864;4.362;2023-12-14T08:06:29;19.33;;;12.90;;
14516;SDS011;7344;50.864;4.362;2023-12-14T08:08:55;18.00;;;12.30;;
14516;SDS011;7344;50.864;4.362;2023-12-14T08:11:23;17.63;;;12.20;;
14516;SDS011;7344;50.864;4.362;2023-12-14T08:13:49;18.97;;;13.17;;
14516;SDS011;7344;50.864;4.362;2023-12-14T08:16:14;22.63;;;13.20;;
14516;SDS011;7344;50.864;4.362;2023-12-14T08:18:42;16.87;;;12.20;;
14516;SDS011;7344;50.864;4.362;2023-12-14T08:21:09;14.13;;;11.03;;
14516;SDS011;7344;50.864;4.362;2023-12-14T08:23:35;15.10;;;11.53;;
14516;SDS011;7344;50.864;4.362;2023-12-14T08:26:01;14.37;;;11.20;;
14516;SDS011;7344;50.864;4.362;2023-12-14T08:28:27;14.90;;;10.87;;
14516;SDS011;7344;50.864;4.362;2023-12-14T08:30:53;14.83;;;9.97;;
14516;SDS011;7344;50.864;4.362;2023-12-14T08:33:19;19.23;;;10.40;;
14516;SDS011;7344;50.864;4.362;2023-12-14T08:35:44;16.53;;;9.67;;
14516;SDS011;7344;50.864;4.362;2023-12-14T08:38:10;11.93;;;8.73;;
14516;SDS011;7344;50.864;4.362;2023-12-14T08:40:36;13.87;;;8.40;;
14516;SDS011;7344;50.864;4.362;2023-12-14T08:43:02;18.73;;;9.37;;
14516;SDS011;7344;50.864;4.362;2023-12-14T08:45:28;23.30;;;8.63;;
14516;SDS011;7344;50.864;4.362;2023-12-14T08:47:54;11.23;;;8.13;;
14516;SDS011;7344;50.864;4.362;2023-12-14T08:50:19;11.57;;;8.30;;
14516;SDS011;7344;50.864;4.362;2023-12-14T08:52:45;10.70;;;8.40;;
14516;SDS011;7344;50.864;4.362;2023-12-14T08:55:12;8.57;;;7.33;;
14516;SDS011;7344;50.864;4.362;2023-12-14T08:57:38;13.47;;;7.73;;
14516;SDS011;7344;50.864;4.362;2023-12-14T09:00:05;9.83;;;7.20;;
14516;SDS011;7344;50.864;4.362;2023-12-14T09:02:32;11.80;;;8.40;;
14516;SDS011;7344;50.864;4.362;2023-12-14T09:04:57;10.50;;;7.70;;
14516;SDS011;7344;50.864;4.362;2023-12-14T09:07:23;11.43;;;8.33;;
14516;SDS011;7344;50.864;4.362;2023-12-14T09:09:49;12.23;;;8.20;;
14516;SDS011;7344;50.864;4.362;2023-12-14T09:12:14;12.13;;;8.70;;
14516;SDS011;7344;50.864;4.362;2023-12-14T09:14:40;10.30;;;7.83;;
14516;SDS011;7344;50.864;4.362;2023-12-14T09:17:06;10.83;;;8.20;;
14516;SDS011;7344;50.864;4.362;2023-12-14T09:19:31;11.37;;;8.00;;
14516;SDS011;7344;50.864;4.362;2023-12-14T09:21:57;11.73;;;7.87;;
14516;SDS011;7344;50.864;4.362;2023-12-14T09:24:23;10.80;;;7.70;;
14516;SDS011;7344;50.864;4.362;2023-12-14T09:26:48;11.50;;;8.00;;
14516;SDS011;7344;50.864;4.362;2023-12-14T09:29:14;8.43;;;7.43;;
14516;SDS011;7344;50.864;4.362;2023-12-14T09:31:43;8.57;;;7.67;;
14516;SDS011;7344;50.864;4.362;2023-12-14T09:34:10;9.53;;;7.57;;
14516;SDS011;7344;50.864;4.362;2023-12-14T09:36:36;12.53;;;7.80;;
14516;SDS011;7344;50.864;4.362;2023-12-14T09:39:02;11.23;;;7.93;;
14516;SDS011;7344;50.864;4.362;2023-12-14T09:41:28;10.20;;;7.50;;
14516;SDS011;7344;50.864;4.362;2023-12-14T09:43:53;9.33;;;6.77;;
14516;SDS011;7344;50.864;4.362;2023-12-14T09:46:20;8.83;;;6.97;;
14516;SDS011;7344;50.864;4.362;2023-12-14T09:48:46;11.67;;;7.30;;
14516;SDS011;7344;50.864;4.362;2023-12-14T09:51:13;9.67;;;7.23;;
14516;SDS011;7344;50.864;4.362;2023-12-14T09:53:39;12.00;;;7.57;;
14516;SDS011;7344;50.864;4.362;2023-12-14T09:56:04;11.13;;;7.23;;
14516;SDS011;7344;50.864;4.362;2023-12-14T09:58:33;15.97;;;7.00;;
14516;SDS011;7344;50.864;4.362;2023-12-14T10:00:59;9.80;;;6.83;;
14516;SDS011;7344;50.864;4.362;2023-12-14T10:03:29;10.20;;;7.33;;
14516;SDS011;7344;50.864;4.362;2023-12-14T10:05:57;10.23;;;6.70;;
14516;SDS011;7344;50.864;4.362;2023-12-14T10:08:24;17.00;;;6.90;;
14516;SDS011;7344;50.864;4.362;2023-12-14T10:10:51;14.43;;;7.63;;
14516;SDS011;7344;50.864;4.362;2023-12-14T10:13:22;10.17;;;7.00;;
14516;SDS011;7344;50.864;4.362;2023-12-14T10:16:02;16.80;;;7.30;;
14516;SDS011;7344;50.864;4.362;2023-12-14T10:18:28;11.40;;;6.40;;
14516;SDS011;7344;50.864;4.362;2023-12-14T10:20:54;11.40;;;6.60;;
14516;SDS011;7344;50.864;4.362;2023-12-14T10:23:20;11.33;;;7.20;;
14516;SDS011;7344;50.864;4.362;2023-12-14T10:25:46;9.60;;;5.93;;
14516;SDS011;7344;50.864;4.362;2023-12-14T10:28:15;8.97;;;5.93;;
14516;SDS011;7344;50.864;4.362;2023-12-14T10:30:41;7.90;;;6.23;;
14516;SDS011;7344;50.864;4.362;2023-12-14T10:33:07;10.53;;;6.73;;
14516;SDS011;7344;50.864;4.362;2023-12-14T10:35:33;15.03;;;6.17;;
14516;SDS011;7344;50.864;4.362;2023-12-14T10:38:02;11.60;;;6.30;;
14516;SDS011;7344;50.864;4.362;2023-12-14T10:40:29;9.90;;;5.63;;
14516;SDS011;7344;50.864;4.362;2023-12-14T10:42:58;9.40;;;5.30;;
14516;SDS011;7344;50.864;4.362;2023-12-14T10:45:25;8.53;;;5.27;;
14516;SDS011;7344;50.864;4.362;2023-12-14T10:47:54;9.47;;;6.03;;
14516;SDS011;7344;50.864;4.362;2023-12-14T10:50:22;11.83;;;6.10;;
14516;SDS011;7344;50.864;4.362;2023-12-14T10:52:48;9.30;;;5.70;;
14516;SDS011;7344;50.864;4.362;2023-12-14T10:55:34;12.30;;;5.40;;
14516;SDS011;7344;50.864;4.362;2023-12-14T10:58:05;8.73;;;5.27;;
14516;SDS011;7344;50.864;4.362;2023-12-14T11:00:30;13.03;;;5.87;;
14516;SDS011;7344;50.864;4.362;2023-12-14T11:02:56;8.33;;;5.03;;
14516;SDS011;7344;50.864;4.362;2023-12-14T11:05:24;7.53;;;5.07;;
14516;SDS011;7344;50.864;4.362;2023-12-14T11:07:55;7.97;;;5.10;;
14516;SDS011;7344;50.864;4.362;2023-12-14T11:10:41;8.20;;;4.13;;
14516;SDS011;7344;50.864;4.362;2023-12-14T11:13:11;8.00;;;4.80;;
14516;SDS011;7344;50.864;4.362;2023-12-14T11:15:45;8.60;;;4.57;;
14516;SDS011;7344;50.864;4.362;2023-12-14T11:18:20;7.33;;;4.50;;
14516;SDS011;7344;50.864;4.362;2023-12-14T11:25:51;8.37;;;4.47;;
14516;SDS011;7344;50.864;4.362;2023-12-14T11:28:18;12.03;;;4.23;;
14516;SDS011;7344;50.864;4.362;2023-12-14T11:30:44;9.77;;;4.93;;
14516;SDS011;7344;50.864;4.362;2023-12-14T11:33:14;7.00;;;5.13;;
14516;SDS011;7344;50.864;4.362;2023-12-14T11:35:41;10.17;;;5.60;;
14516;SDS011;7344;50.864;4.362;2023-12-14T11:38:06;11.63;;;5.63;;
14516;SDS011;7344;50.864;4.362;2023-12-14T11:40:38;11.80;;;6.43;;
14516;SDS011;7344;50.864;4.362;2023-12-14T11:43:07;12.50;;;6.43;;
14516;SDS011;7344;50.864;4.362;2023-12-14T11:45:37;11.87;;;6.90;;
14516;SDS011;7344;50.864;4.362;2023-12-14T11:48:03;11.50;;;7.30;;
14516;SDS011;7344;50.864;4.362;2023-12-14T11:50:35;14.60;;;7.03;;
14516;SDS011;7344;50.864;4.362;2023-12-14T11:53:08;12.67;;;7.63;;
14516;SDS011;7344;50.864;4.362;2023-12-14T11:55:36;12.37;;;7.47;;
14516;SDS011;7344;50.864;4.362;2023-12-14T11:58:04;16.07;;;7.50;;
14516;SDS011;7344;50.864;4.362;2023-12-14T12:00:31;14.10;;;8.27;;
14516;SDS011;7344;50.864;4.362;2023-12-14T12:05:40;15.23;;;7.77;;
14516;SDS011;7344;50.864;4.362;2023-12-14T12:08:07;13.87;;;7.20;;
14516;SDS011;7344;50.864;4.362;2023-12-14T12:10:34;11.47;;;7.03;;
14516;SDS011;7344;50.864;4.362;2023-12-14T12:13:03;14.23;;;8.00;;
14516;SDS011;7344;50.864;4.362;2023-12-14T12:15:31;10.70;;;7.93;;
14516;SDS011;7344;50.864;4.362;2023-12-14T12:18:00;20.90;;;12.23;;
14516;SDS011;7344;50.864;4.362;2023-12-14T12:20:33;13.87;;;8.03;;
14516;SDS011;7344;50.864;4.362;2023-12-14T12:22:59;18.53;;;8.50;;
14516;SDS011;7344;50.864;4.362;2023-12-14T12:25:26;14.17;;;8.07;;
14516;SDS011;7344;50.864;4.362;2023-12-14T12:27:53;16.93;;;8.73;;
14516;SDS011;7344;50.864;4.362;2023-12-14T12:30:20;14.47;;;8.50;;
14516;SDS011;7344;50.864;4.362;2023-12-14T12:32:46;11.13;;;7.73;;
14516;SDS011;7344;50.864;4.362;2023-12-14T12:35:12;11.37;;;7.80;;
14516;SDS011;7344;50.864;4.362;2023-12-14T12:37:38;13.13;;;7.43;;
14516;SDS011;7344;50.864;4.362;2023-12-14T12:40:04;11.43;;;7.37;;
14516;SDS011;7344;50.864;4.362;2023-12-14T12:42:30;11.60;;;7.10;;
14516;SDS011;7344;50.864;4.362;2023-12-14T12:44:56;8.77;;;6.67;;
14516;SDS011;7344;50.864;4.362;2023-12-14T12:47:22;11.03;;;6.53;;
14516;SDS011;7344;50.864;4.362;2023-12-14T12:49:47;10.33;;;6.07;;
14516;SDS011;7344;50.864;4.362;2023-12-14T12:52:13;11.57;;;6.60;;
14516;SDS011;7344;50.864;4.362;2023-12-14T12:54:38;6.70;;;6.07;;
14516;SDS011;7344;50.864;4.362;2023-12-14T12:57:04;8.03;;;6.20;;
14516;SDS011;7344;50.864;4.362;2023-12-14T12:59:30;8.40;;;6.03;;
14516;SDS011;7344;50.864;4.362;2023-12-14T13:01:56;9.40;;;5.77;;
14516;SDS011;7344;50.864;4.362;2023-12-14T13:04:21;11.53;;;6.50;;
14516;SDS011;7344;50.864;4.362;2023-12-14T13:06:48;10.47;;;6.20;;
14516;SDS011;7344;50.864;4.362;2023-12-14T13:09:15;11.33;;;6.20;;
14516;SDS011;7344;50.864;4.362;2023-12-14T13:11:42;15.87;;;6.60;;
14516;SDS011;7344;50.864;4.362;2023-12-14T13:14:08;10.93;;;6.10;;
14516;SDS011;7344;50.864;4.362;2023-12-14T13:16:34;11.63;;;6.87;;
14516;SDS011;7344;50.864;4.362;2023-12-14T13:19:00;9.40;;;6.33;;
14516;SDS011;7344;50.864;4.362;2023-12-14T13:21:26;8.87;;;6.70;;
14516;SDS011;7344;50.864;4.362;2023-12-14T13:23:52;14.40;;;6.43;;
14516;SDS011;7344;50.864;4.362;2023-12-14T13:26:18;12.40;;;6.67;;
14516;SDS011;7344;50.864;4.362;2023-12-14T13:28:44;10.07;;;6.50;;
14516;SDS011;7344;50.864;4.362;2023-12-14T13:31:09;14.17;;;7.20;;
14516;SDS011;7344;50.864;4.362;2023-12-14T13:33:35;10.80;;;6.67;;
14516;SDS011;7344;50.864;4.362;2023-12-14T13:36:01;10.17;;;6.40;;
14516;SDS011;7344;50.864;4.362;2023-12-14T13:38:26;10.27;;;7.10;;
14516;SDS011;7344;50.864;4.362;2023-12-14T13:40:52;12.67;;;7.10;;
14516;SDS011;7344;50.864;4.362;2023-12-14T13:43:17;14.17;;;7.70;;
14516;SDS011;7344;50.864;4.362;2023-12-14T13:45:43;12.63;;;8.07;;
14516;SDS011;7344;50.864;4.362;2023-12-14T13:48:09;12.60;;;7.83;;
14516;SDS011;7344;50.864;4.362;2023-12-14T13:50:35;12.87;;;8.30;;
14516;SDS011;7344;50.864;4.362;2023-12-14T13:53:01;13.77;;;8.47;;
14516;SDS011;7344;50.864;4.362;2023-12-14T13:55:29;14.10;;;8.83;;
14516;SDS011;7344;50.864;4.362;2023-12-14T13:57:55;10.27;;;7.57;;
14516;SDS011;7344;50.864;4.362;2023-12-14T14:00:23;13.87;;;9.20;;
14516;SDS011;7344;50.864;4.362;2023-12-14T14:02:49;11.60;;;7.87;;
14516;SDS011;7344;50.864;4.362;2023-12-14T14:05:15;10.67;;;7.13;;
14516;SDS011;7344;50.864;4.362;2023-12-14T14:07:40;11.53;;;7.37;;
14516;SDS011;7344;50.864;4.362;2023-12-14T14:10:06;9.23;;;7.40;;
14516;SDS011;7344;50.864;4.362;2023-12-14T14:12:32;14.97;;;6.97;;
14516;SDS011;7344;50.864;4.362;2023-12-14T14:14:57;13.13;;;7.03;;
14516;SDS011;7344;50.864;4.362;2023-12-14T14:17:23;10.57;;;7.00;;
14516;SDS011;7344;50.864;4.362;2023-12-14T14:19:48;13.03;;;7.10;;
14516;SDS011;7344;50.864;4.362;2023-12-14T14:22:14;13.27;;;6.57;;
14516;SDS011;7344;50.864;4.362;2023-12-14T14:24:39;9.43;;;6.63;;
14516;SDS011;7344;50.864;4.362;2023-12-14T14:27:05;12.37;;;6.53;;
14516;SDS011;7344;50.864;4.362;2023-12-14T14:29:30;7.73;;;6.27;;
14516;SDS011;7344;50.864;4.362;2023-12-14T14:31:56;10.13;;;6.83;;
14516;SDS011;7344;50.864;4.362;2023-12-14T14:34:21;11.47;;;7.07;;
14516;SDS011;7344;50.864;4.362;2023-12-14T14:36:47;7.73;;;6.30;;
14516;SDS011;7344;50.864;4.362;2023-12-14T14:39:13;8.27;;;6.23;;
14516;SDS011;7344;50.864;4.362;2023-12-14T14:41:38;14.83;;;7.10;;
14516;SDS011;7344;50.864;4.362;2023-12-14T14:44:04;8.63;;;6.20;;